createdAt,value
2022-12-14T00:00:41.175Z,-5.75
2022-12-14T00:03:16.960Z,-5.78
2022-12-14T00:05:41.007Z,-5.82
2022-12-14T00:08:05.241Z,-5.86
2022-12-14T00:10:29.149Z,-5.87
2022-12-14T00:12:52.775Z,-5.87
2022-12-14T00:15:16.528Z,-5.82
2022-12-14T00:17:40.135Z,-5.76
2022-12-14T00:20:04.872Z,-5.72
2022-12-14T00:22:28.523Z,-5.71
2022-12-14T00:24:51.932Z,-5.68
2022-12-14T00:27:15.471Z,-5.70
2022-12-14T00:29:39.024Z,-5.71
2022-12-14T00:32:02.527Z,-5.71
2022-12-14T00:34:26.109Z,-5.73
2022-12-14T00:36:49.629Z,-5.76
2022-12-14T00:39:13.083Z,-5.79
2022-12-14T00:41:36.582Z,-5.81
2022-12-14T00:44:00.240Z,-5.79
2022-12-14T00:46:24.216Z,-5.79
2022-12-14T00:48:48.004Z,-5.75
2022-12-14T00:51:14.078Z,-5.71
2022-12-14T00:53:37.703Z,-5.72
2022-12-14T00:56:06.954Z,-5.71
2022-12-14T00:58:30.689Z,-5.70
2022-12-14T01:01:01.366Z,-5.74
2022-12-14T01:03:25.720Z,-5.78
2022-12-14T01:05:49.633Z,-5.82
2022-12-14T01:08:14.206Z,-5.85
2022-12-14T01:10:40.076Z,-5.91
2022-12-14T01:13:02.796Z,-5.99
2022-12-14T01:15:26.262Z,-6.07
2022-12-14T01:17:51.662Z,-6.13
2022-12-14T01:20:15.117Z,-6.16
2022-12-14T01:22:39.234Z,-6.17
2022-12-14T01:25:03.450Z,-6.18
2022-12-14T01:27:27.457Z,-6.19
2022-12-14T01:29:50.959Z,-6.17
2022-12-14T01:32:14.668Z,-6.18
2022-12-14T01:34:38.224Z,-6.20
2022-12-14T01:37:01.705Z,-6.21
2022-12-14T01:39:25.166Z,-6.21
2022-12-14T01:41:52.373Z,-6.21
2022-12-14T01:44:54.175Z,-6.21
2022-12-14T01:47:22.955Z,-6.26
2022-12-14T01:49:51.717Z,-6.28
2022-12-14T01:52:20.245Z,-6.26
2022-12-14T01:54:49.126Z,-6.25
2022-12-14T01:57:13.662Z,-6.24
2022-12-14T01:59:41.200Z,-6.20
2022-12-14T02:02:08.314Z,-6.14
2022-12-14T02:04:33.517Z,-6.12
2022-12-14T02:07:01.143Z,-6.11
2022-12-14T02:09:28.108Z,-6.14
2022-12-14T02:12:00.313Z,-6.17
2022-12-14T02:14:24.410Z,-6.22
2022-12-14T02:16:50.799Z,-6.24
2022-12-14T02:19:14.252Z,-6.31
2022-12-14T02:21:54.131Z,-6.38
2022-12-14T02:24:49.835Z,-6.42
2022-12-14T02:27:49.785Z,-6.43
2022-12-14T02:30:17.513Z,-6.45
2022-12-14T02:33:01.281Z,-6.46
2022-12-14T02:35:37.261Z,-6.49
2022-12-14T02:38:12.365Z,-6.52
2022-12-14T02:40:42.171Z,-6.50
2022-12-14T02:43:14.486Z,-6.51
2022-12-14T02:45:42.080Z,-6.51
2022-12-14T02:48:12.231Z,-6.49
2022-12-14T02:50:43.351Z,-6.53
2022-12-14T02:53:15.186Z,-6.60
2022-12-14T02:55:44.211Z,-6.66
2022-12-14T02:58:14.102Z,-6.72
2022-12-14T03:00:38.220Z,-6.78
2022-12-14T03:03:04.071Z,-6.84
2022-12-14T03:05:26.678Z,-6.88
2022-12-14T03:07:54.332Z,-6.90
2022-12-14T03:10:27.134Z,-6.91
2022-12-14T03:12:56.682Z,-6.89
2022-12-14T03:15:24.129Z,-6.89
2022-12-14T03:17:51.650Z,-6.92
2022-12-14T03:20:20.419Z,-6.97
2022-12-14T03:22:50.839Z,-6.99
2022-12-14T03:25:18.155Z,-7.04
2022-12-14T03:27:46.517Z,-7.11
2022-12-14T03:30:14.996Z,-7.21
2022-12-14T03:32:46.877Z,-7.34
2022-12-14T03:35:15.293Z,-7.47
2022-12-14T03:37:48.772Z,-7.58
2022-12-14T03:40:17.391Z,-7.67
2022-12-14T03:42:53.260Z,-7.70
2022-12-14T03:45:21.437Z,-7.71
2022-12-14T03:47:59.969Z,-7.72
2022-12-14T03:50:28.522Z,-7.72
2022-12-14T03:52:58.540Z,-7.72
2022-12-14T03:55:29.839Z,-7.71
2022-12-14T03:58:06.409Z,-7.70
2022-12-14T04:00:36.854Z,-7.72
2022-12-14T04:03:09.356Z,-7.75
2022-12-14T04:05:45.488Z,-7.78
2022-12-14T04:08:20.078Z,-7.81
2022-12-14T04:11:07.315Z,-7.85
2022-12-14T04:13:54.586Z,-7.89
2022-12-14T04:16:42.836Z,-7.93
2022-12-14T04:19:12.743Z,-7.92
2022-12-14T04:21:41.358Z,-7.89
2022-12-14T04:24:30.036Z,-7.90
2022-12-14T04:26:58.969Z,-7.93
2022-12-14T04:29:47.438Z,-7.95
2022-12-14T04:32:17.014Z,-7.95
2022-12-14T04:34:42.911Z,-7.96
2022-12-14T04:37:12.166Z,-7.97
2022-12-14T04:39:40.886Z,-8.02
2022-12-14T04:42:08.125Z,-8.06
2022-12-14T04:44:35.782Z,-8.08
2022-12-14T04:47:00.798Z,-8.09
2022-12-14T04:49:28.836Z,-8.09
2022-12-14T04:52:04.819Z,-8.12
2022-12-14T04:54:33.875Z,-8.14
2022-12-14T04:57:05.611Z,-8.17
2022-12-14T04:59:30.183Z,-8.19
2022-12-14T05:02:04.257Z,-8.23
2022-12-14T05:04:40.627Z,-8.27
2022-12-14T05:07:17.403Z,-8.30
2022-12-14T05:09:47.912Z,-8.31
2022-12-14T05:12:17.136Z,-8.35
2022-12-14T05:14:46.052Z,-8.36
2022-12-14T05:17:10.594Z,-8.35
2022-12-14T05:19:34.533Z,-8.32
2022-12-14T05:22:01.351Z,-8.31
2022-12-14T05:24:24.808Z,-8.28
2022-12-14T05:26:48.273Z,-8.26
2022-12-14T05:29:11.986Z,-8.24
2022-12-14T05:31:35.747Z,-8.23
2022-12-14T05:33:59.158Z,-8.22
2022-12-14T05:36:22.965Z,-8.21
2022-12-14T05:38:46.895Z,-8.18
2022-12-14T05:41:10.596Z,-8.13
2022-12-14T05:43:34.459Z,-8.11
2022-12-14T05:45:59.970Z,-8.10
2022-12-14T05:48:23.444Z,-8.10
2022-12-14T05:50:47.044Z,-8.11
2022-12-14T05:53:10.523Z,-8.13
2022-12-14T05:55:33.928Z,-8.13
2022-12-14T05:57:57.492Z,-8.11
2022-12-14T06:00:21.679Z,-8.11
2022-12-14T06:02:45.218Z,-8.15
2022-12-14T06:05:09.890Z,-8.16
2022-12-14T06:07:33.411Z,-8.18
2022-12-14T06:09:56.909Z,-8.19
2022-12-14T06:12:20.500Z,-8.18
2022-12-14T06:14:43.898Z,-8.20
2022-12-14T06:17:07.474Z,-8.20
2022-12-14T06:19:31.097Z,-8.20
2022-12-14T06:21:54.719Z,-8.23
2022-12-14T06:24:18.364Z,-8.26
2022-12-14T06:26:42.555Z,-8.29
2022-12-14T06:29:06.471Z,-8.34
2022-12-14T06:31:31.840Z,-8.39
2022-12-14T06:33:58.537Z,-8.45
2022-12-14T06:36:23.956Z,-8.53
2022-12-14T06:38:47.675Z,-8.59
2022-12-14T06:41:11.498Z,-8.63
2022-12-14T06:43:35.012Z,-8.65
2022-12-14T06:45:58.484Z,-8.68
2022-12-14T06:48:22.145Z,-8.70
2022-12-14T06:50:45.581Z,-8.73
2022-12-14T06:53:12.559Z,-8.76
2022-12-14T06:55:36.210Z,-8.79
2022-12-14T06:57:59.872Z,-8.81
2022-12-14T07:00:24.203Z,-8.85
2022-12-14T07:02:48.187Z,-8.87
2022-12-14T07:05:12.168Z,-8.86
2022-12-14T07:07:36.563Z,-8.84
2022-12-14T07:10:00.571Z,-8.81
2022-12-14T07:12:23.993Z,-8.71
2022-12-14T07:14:47.457Z,-8.61
2022-12-14T07:17:10.979Z,-8.48
2022-12-14T07:19:34.723Z,-8.35
2022-12-14T07:22:03.295Z,-8.20
2022-12-14T07:24:27.024Z,-8.04
2022-12-14T07:26:50.768Z,-7.88
2022-12-14T07:29:16.183Z,-7.70
2022-12-14T07:31:39.736Z,-7.54
2022-12-14T07:34:03.283Z,-7.41
2022-12-14T07:36:28.620Z,-7.27
2022-12-14T07:38:54.932Z,-7.13
2022-12-14T07:41:22.946Z,-7.03
2022-12-14T07:43:49.963Z,-6.91
2022-12-14T07:46:16.456Z,-6.75
2022-12-14T07:48:43.747Z,-6.57
2022-12-14T07:51:09.718Z,-6.38
2022-12-14T07:53:33.994Z,-6.17
2022-12-14T07:56:01.928Z,-6.01
2022-12-14T07:58:25.359Z,-5.91
2022-12-14T08:00:48.835Z,-5.76
2022-12-14T08:03:12.559Z,-5.67
2022-12-14T08:05:39.412Z,-5.56
2022-12-14T08:08:03.452Z,-5.44
2022-12-14T08:10:27.109Z,-5.32
2022-12-14T08:12:51.115Z,-5.26
2022-12-14T08:15:15.079Z,-5.21
2022-12-14T08:17:38.511Z,-5.16
2022-12-14T08:20:02.329Z,-5.08
2022-12-14T08:22:25.799Z,-5.01
2022-12-14T08:24:49.805Z,-4.93
2022-12-14T08:27:13.266Z,-4.82
2022-12-14T08:29:36.736Z,-4.67
2022-12-14T08:32:00.209Z,-4.54
2022-12-14T08:34:23.861Z,-4.43
2022-12-14T08:36:47.474Z,-4.32
2022-12-14T08:39:12.745Z,-4.23
2022-12-14T08:41:36.507Z,-4.14
2022-12-14T08:44:02.497Z,-4.06
2022-12-14T08:46:26.089Z,-3.94
2022-12-14T08:48:52.457Z,-3.82
2022-12-14T08:51:17.102Z,-3.69
2022-12-14T08:53:40.798Z,-3.52
2022-12-14T08:56:07.548Z,-3.33
2022-12-14T08:58:31.340Z,-3.23
2022-12-14T09:01:02.515Z,-3.19
2022-12-14T09:03:26.228Z,-3.19
2022-12-14T09:05:56.770Z,-3.24
2022-12-14T09:08:23.729Z,-3.31
2022-12-14T09:10:50.468Z,-3.36
2022-12-14T09:13:18.205Z,-3.42
2022-12-14T09:15:42.340Z,-3.46
2022-12-14T09:18:05.936Z,-3.38
2022-12-14T09:20:29.580Z,-3.27
2022-12-14T09:22:53.168Z,-3.14
2022-12-14T09:25:16.937Z,-2.95
2022-12-14T09:27:40.576Z,-2.77
2022-12-14T09:30:05.285Z,-2.59
2022-12-14T09:32:29.774Z,-2.47
2022-12-14T09:34:53.465Z,-2.35
2022-12-14T09:37:16.998Z,-2.28
2022-12-14T09:39:40.486Z,-2.22
2022-12-14T09:42:19.146Z,-2.09
2022-12-14T09:44:56.332Z,-1.91
2022-12-14T09:47:25.095Z,-1.82
2022-12-14T09:49:52.979Z,-1.70
2022-12-14T09:52:21.003Z,-1.54
2022-12-14T09:54:46.974Z,-1.45
2022-12-14T09:57:20.789Z,-1.32
2022-12-14T09:59:44.298Z,-1.09
2022-12-14T10:02:33.827Z,-0.91
2022-12-14T10:05:13.888Z,-0.82
2022-12-14T10:07:42.849Z,-0.78
2022-12-14T10:10:16.709Z,-0.79
2022-12-14T10:12:51.827Z,-0.83
2022-12-14T10:15:24.567Z,-1.00
2022-12-14T10:18:27.492Z,-1.18
2022-12-14T10:21:01.782Z,-1.37
2022-12-14T10:23:26.859Z,-1.42
2022-12-14T10:25:54.684Z,-1.40
2022-12-14T10:28:23.754Z,-1.34
2022-12-14T10:30:50.196Z,-1.33
2022-12-14T10:33:22.203Z,-1.35
2022-12-14T10:35:51.271Z,-1.31
2022-12-14T10:38:23.658Z,-1.21
2022-12-14T10:40:51.460Z,-1.24
2022-12-14T10:43:30.444Z,-1.34
2022-12-14T10:46:01.587Z,-1.48
2022-12-14T10:48:36.706Z,-1.57
2022-12-14T10:51:03.322Z,-1.63
2022-12-14T10:53:38.712Z,-1.64
2022-12-14T10:56:10.551Z,-1.63
2022-12-14T10:58:34.050Z,-1.61
2022-12-14T11:00:57.582Z,-1.70
2022-12-14T11:03:21.582Z,-1.82
2022-12-14T11:05:55.994Z,-1.96
2022-12-14T11:08:41.860Z,-2.08
2022-12-14T11:11:15.483Z,-2.25
2022-12-14T11:13:48.996Z,-2.30
2022-12-14T11:16:30.301Z,-2.28
2022-12-14T11:19:00.989Z,-2.28
2022-12-14T11:21:30.254Z,-2.35
2022-12-14T11:23:55.156Z,-2.43
2022-12-14T11:26:26.575Z,-2.52
2022-12-14T11:28:52.715Z,-2.57
2022-12-14T11:31:23.987Z,-2.62
2022-12-14T11:33:50.825Z,-2.70
2022-12-14T11:36:26.131Z,-2.82
2022-12-14T11:38:56.693Z,-2.89
2022-12-14T11:41:21.868Z,-2.93
2022-12-14T11:43:45.391Z,-3.05
2022-12-14T11:46:09.166Z,-3.14
2022-12-14T11:48:37.722Z,-3.11
2022-12-14T11:51:11.344Z,-3.09
2022-12-14T11:53:35.412Z,-3.12
2022-12-14T11:56:01.811Z,-3.11
2022-12-14T11:58:28.722Z,-3.11
2022-12-14T12:00:58.213Z,-3.14
2022-12-14T12:03:27.407Z,-3.20
2022-12-14T12:05:52.507Z,-3.21
2022-12-14T12:08:24.728Z,-3.21
2022-12-14T12:10:50.803Z,-3.13
2022-12-14T12:13:21.332Z,-3.07
2022-12-14T12:15:50.733Z,-3.02
2022-12-14T12:18:20.195Z,-3.04
2022-12-14T12:20:50.982Z,-3.11
2022-12-14T12:23:19.653Z,-3.20
2022-12-14T12:25:46.999Z,-3.33
2022-12-14T12:28:17.686Z,-3.43
2022-12-14T12:30:45.620Z,-3.50
2022-12-14T12:33:26.732Z,-3.62
2022-12-14T12:35:53.639Z,-3.74
2022-12-14T12:38:27.168Z,-3.77
2022-12-14T12:40:59.147Z,-3.79
2022-12-14T12:43:30.028Z,-3.81
2022-12-14T12:45:57.636Z,-3.83
2022-12-14T12:48:26.793Z,-3.85
2022-12-14T12:50:54.495Z,-3.90
2022-12-14T12:53:25.879Z,-3.98
2022-12-14T12:55:53.063Z,-4.03
2022-12-14T12:58:22.419Z,-4.08
2022-12-14T13:00:50.934Z,-4.09
2022-12-14T13:03:22.391Z,-4.09
2022-12-14T13:05:48.632Z,-4.10
2022-12-14T13:08:22.300Z,-4.11
2022-12-14T13:11:17.257Z,-4.13
2022-12-14T13:13:34.024Z,-4.17
2022-12-14T13:16:05.404Z,-4.23
2022-12-14T13:18:57.638Z,-4.26
2022-12-14T13:21:27.149Z,-4.33
2022-12-14T13:23:50.595Z,-4.42
2022-12-14T13:26:57.863Z,-4.46
2022-12-14T13:29:29.321Z,-4.52
2022-12-14T13:32:00.852Z,-4.57
2022-12-14T13:34:39.014Z,-4.60
2022-12-14T13:37:37.629Z,-4.66
2022-12-14T13:40:39.154Z,-4.68
2022-12-14T13:43:15.781Z,-4.74
2022-12-14T13:45:42.334Z,-4.78
2022-12-14T13:48:14.947Z,-4.83
2022-12-14T13:50:52.944Z,-4.87
2022-12-14T13:53:27.160Z,-4.90
2022-12-14T13:55:55.111Z,-4.94
2022-12-14T13:58:21.729Z,-4.98
2022-12-14T14:00:55.829Z,-5.03
2022-12-14T14:03:53.426Z,-5.09
2022-12-14T14:06:36.242Z,-5.22
2022-12-14T14:09:19.975Z,-5.29
2022-12-14T14:11:56.606Z,-5.33
2022-12-14T14:14:34.853Z,-5.36
2022-12-14T14:17:03.245Z,-5.40
2022-12-14T14:19:34.706Z,-5.46
2022-12-14T14:22:24.586Z,-5.51
2022-12-14T14:25:00.846Z,-5.57
2022-12-14T14:27:27.290Z,-5.62
2022-12-14T14:29:52.128Z,-5.63
2022-12-14T14:32:38.302Z,-5.62
2022-12-14T14:35:05.128Z,-5.62
2022-12-14T14:37:37.660Z,-5.64
2022-12-14T14:40:20.334Z,-5.68
2022-12-14T14:42:51.896Z,-5.72
2022-12-14T14:45:37.085Z,-5.76
2022-12-14T14:48:27.938Z,-5.80
2022-12-14T14:51:04.063Z,-5.81
2022-12-14T14:53:30.823Z,-5.82
2022-12-14T14:56:32.294Z,-5.82
2022-12-14T14:59:40.169Z,-5.82
2022-12-14T15:02:17.790Z,-5.84
2022-12-14T15:04:47.486Z,-5.85
2022-12-14T15:07:18.017Z,-5.87
2022-12-14T15:09:44.116Z,-5.87
2022-12-14T15:12:22.313Z,-5.85
2022-12-14T15:14:52.780Z,-5.82
2022-12-14T15:17:22.449Z,-5.80
2022-12-14T15:19:49.124Z,-5.79
2022-12-14T15:22:15.773Z,-5.80
2022-12-14T15:24:41.698Z,-5.82
2022-12-14T15:27:19.842Z,-5.89
2022-12-14T15:29:45.090Z,-5.95
2022-12-14T15:32:17.346Z,-5.97
2022-12-14T15:34:55.559Z,-5.98
2022-12-14T15:37:29.884Z,-5.99
2022-12-14T15:40:02.300Z,-6.02
2022-12-14T15:42:26.495Z,-6.04
2022-12-14T15:44:51.773Z,-6.08
2022-12-14T15:47:27.310Z,-6.10
2022-12-14T15:49:56.008Z,-6.14
2022-12-14T15:52:29.316Z,-6.16
2022-12-14T15:54:53.335Z,-6.18
2022-12-14T15:57:19.173Z,-6.19
2022-12-14T15:59:42.953Z,-6.20
2022-12-14T16:02:21.453Z,-6.23
2022-12-14T16:04:45.885Z,-6.22
2022-12-14T16:07:17.355Z,-6.22
2022-12-14T16:09:43.867Z,-6.23
2022-12-14T16:12:20.721Z,-6.21
2022-12-14T16:14:48.321Z,-6.21
2022-12-14T16:17:13.190Z,-6.19
2022-12-14T16:19:58.227Z,-6.19
2022-12-14T16:22:24.186Z,-6.19
2022-12-14T16:25:18.604Z,-6.21
2022-12-14T16:27:44.021Z,-6.21
2022-12-14T16:30:18.284Z,-6.25
2022-12-14T16:32:42.178Z,-6.26
2022-12-14T16:35:06.496Z,-6.25
2022-12-14T16:37:33.468Z,-6.23
2022-12-14T16:39:57.756Z,-6.22
2022-12-14T16:42:23.117Z,-6.19
2022-12-14T16:44:48.038Z,-6.18
2022-12-14T16:47:43.975Z,-6.20
2022-12-14T16:53:20.876Z,-6.25
2022-12-14T16:56:05.617Z,-6.26
2022-12-14T16:58:29.491Z,-6.25
2022-12-14T17:00:59.448Z,-6.25
2022-12-14T17:03:23.925Z,-6.23
2022-12-14T17:05:53.954Z,-6.21
2022-12-14T17:08:18.253Z,-6.20
2022-12-14T17:10:41.938Z,-6.18
2022-12-14T17:13:05.560Z,-6.19
2022-12-14T17:15:32.991Z,-6.19
2022-12-14T17:18:01.322Z,-6.19
2022-12-14T17:20:27.532Z,-6.19
2022-12-14T17:22:51.955Z,-6.17
2022-12-14T17:25:15.792Z,-6.14
2022-12-14T17:28:06.603Z,-6.11
2022-12-14T17:30:30.886Z,-6.08
2022-12-14T17:32:55.462Z,-6.07
2022-12-14T17:35:21.556Z,-6.07
2022-12-14T17:37:45.340Z,-6.08
2022-12-14T17:40:10.864Z,-6.06
2022-12-14T17:42:36.161Z,-6.04
2022-12-14T17:45:00.480Z,-6.00
2022-12-14T17:47:24.457Z,-5.96
2022-12-14T17:49:48.088Z,-5.92
2022-12-14T17:52:19.658Z,-5.91
2022-12-14T17:54:43.274Z,-5.92
2022-12-14T17:57:14.488Z,-5.93
2022-12-14T17:59:39.888Z,-5.96
2022-12-14T18:02:18.612Z,-5.97
2022-12-14T18:04:42.505Z,-5.96
2022-12-14T18:07:06.366Z,-5.95
2022-12-14T18:09:29.948Z,-5.95
2022-12-14T18:12:22.598Z,-5.96
2022-12-14T18:14:44.509Z,-5.96
2022-12-14T18:17:11.599Z,-5.97
2022-12-14T18:19:36.372Z,-5.98
2022-12-14T18:21:59.924Z,-5.99
2022-12-14T18:24:26.087Z,-6.00
2022-12-14T18:26:49.883Z,-5.99
2022-12-14T18:29:13.582Z,-5.99
2022-12-14T18:31:38.320Z,-5.96
2022-12-14T18:34:02.142Z,-5.91
2022-12-14T18:36:27.211Z,-5.88
2022-12-14T18:38:51.642Z,-5.87
2022-12-14T18:41:16.935Z,-5.87
2022-12-14T18:43:43.895Z,-5.88
2022-12-14T18:46:08.125Z,-5.91
2022-12-14T18:48:31.662Z,-5.90
2022-12-14T18:50:55.617Z,-5.90
2022-12-14T18:53:20.958Z,-5.89
2022-12-14T18:55:44.677Z,-5.86
2022-12-14T18:58:13.874Z,-5.83
2022-12-14T19:00:38.911Z,-5.80
2022-12-14T19:03:04.236Z,-5.75
2022-12-14T19:05:28.694Z,-5.72
2022-12-14T19:07:52.477Z,-5.73
2022-12-14T19:10:18.356Z,-5.73
2022-12-14T19:12:42.197Z,-5.73
2022-12-14T19:15:10.781Z,-5.73
2022-12-14T19:17:34.348Z,-5.73
2022-12-14T19:19:58.022Z,-5.72
2022-12-14T19:22:30.436Z,-5.67
2022-12-14T19:24:53.985Z,-5.63
2022-12-14T19:27:30.310Z,-5.58
2022-12-14T19:30:01.786Z,-5.56
2022-12-14T19:32:25.715Z,-5.56
2022-12-14T19:34:49.397Z,-5.59
2022-12-14T19:37:13.147Z,-5.64
2022-12-14T19:39:36.908Z,-5.66
2022-12-14T19:42:00.529Z,-5.65
2022-12-14T19:44:24.497Z,-5.63
2022-12-14T19:46:48.509Z,-5.59
2022-12-14T19:49:14.082Z,-5.56
2022-12-14T19:51:37.037Z,-5.55
2022-12-14T19:54:00.783Z,-5.53
2022-12-14T19:56:23.420Z,-5.55
2022-12-14T19:58:47.205Z,-5.58
2022-12-14T20:01:11.148Z,-5.61
2022-12-14T20:03:34.372Z,-5.63
2022-12-14T20:06:06.090Z,-5.64
2022-12-14T20:08:32.922Z,-5.64
2022-12-14T20:10:56.262Z,-5.63
2022-12-14T20:13:22.637Z,-5.62
2022-12-14T20:16:10.280Z,-5.61
2022-12-14T20:18:33.132Z,-5.60
2022-12-14T20:21:01.545Z,-5.59
2022-12-14T20:23:24.250Z,-5.58
2022-12-14T20:25:47.169Z,-5.56
2022-12-14T20:28:09.888Z,-5.52
2022-12-14T20:30:33.581Z,-5.48
2022-12-14T20:32:56.711Z,-5.44
2022-12-14T20:35:19.384Z,-5.39
2022-12-14T20:37:42.275Z,-5.40
2022-12-14T20:40:05.977Z,-5.40
2022-12-14T20:42:28.767Z,-5.41
2022-12-14T20:44:51.897Z,-5.44
2022-12-14T20:47:14.635Z,-5.46
2022-12-14T20:49:38.215Z,-5.45
2022-12-14T20:52:00.892Z,-5.45
2022-12-14T20:54:24.881Z,-5.44
2022-12-14T20:56:49.293Z,-5.40
2022-12-14T20:59:12.917Z,-5.39
2022-12-14T21:01:36.023Z,-5.36
2022-12-14T21:04:00.514Z,-5.33
2022-12-14T21:06:23.571Z,-5.29
2022-12-14T21:09:08.095Z,-5.30
2022-12-14T21:11:49.413Z,-5.31
2022-12-14T21:14:12.433Z,-5.32
2022-12-14T21:16:35.475Z,-5.32
2022-12-14T21:18:58.075Z,-5.32
2022-12-14T21:21:21.583Z,-5.30
2022-12-14T21:23:44.629Z,-5.29
2022-12-14T21:26:07.197Z,-5.27
2022-12-14T21:28:32.212Z,-5.24
2022-12-14T21:31:01.100Z,-5.21
2022-12-14T21:33:23.829Z,-5.18
2022-12-14T21:35:46.613Z,-5.16
2022-12-14T21:38:09.224Z,-5.13
2022-12-14T21:40:50.575Z,-5.09
2022-12-14T21:43:14.373Z,-5.04
2022-12-14T21:45:37.097Z,-4.98
2022-12-14T21:47:59.682Z,-4.94
2022-12-14T21:50:22.328Z,-4.91
2022-12-14T21:52:45.147Z,-4.87
2022-12-14T21:55:08.069Z,-4.82
2022-12-14T21:57:54.451Z,-4.78
2022-12-14T22:00:17.807Z,-4.73
2022-12-14T22:02:41.847Z,-4.69
2022-12-14T22:05:06.040Z,-4.68
2022-12-14T22:07:30.578Z,-4.65
2022-12-14T22:09:53.370Z,-4.64
2022-12-14T22:12:16.299Z,-4.64
2022-12-14T22:14:38.982Z,-4.65
2022-12-14T22:17:01.719Z,-4.66
2022-12-14T22:19:24.952Z,-4.67
2022-12-14T22:21:47.959Z,-4.68
2022-12-14T22:24:11.327Z,-4.71
2022-12-14T22:26:34.489Z,-4.72
2022-12-14T22:28:57.548Z,-4.71
2022-12-14T22:31:20.459Z,-4.70
2022-12-14T22:33:43.099Z,-4.65
2022-12-14T22:36:05.967Z,-4.61
2022-12-14T22:38:32.751Z,-4.59
2022-12-14T22:41:00.387Z,-4.57
2022-12-14T22:43:28.043Z,-4.57
2022-12-14T22:45:52.826Z,-4.57
2022-12-14T22:48:16.116Z,-4.61
2022-12-14T22:50:38.683Z,-4.62
2022-12-14T22:53:01.280Z,-4.64
2022-12-14T22:55:23.985Z,-4.64
2022-12-14T22:57:47.589Z,-4.65
2022-12-14T23:00:13.672Z,-4.63
2022-12-14T23:02:36.424Z,-4.65
2022-12-14T23:04:59.439Z,-4.67
2022-12-14T23:07:22.237Z,-4.68
2022-12-14T23:10:03.050Z,-4.68
2022-12-14T23:12:44.420Z,-4.68
2022-12-14T23:15:25.387Z,-4.70
2022-12-14T23:18:06.421Z,-4.73
2022-12-14T23:20:47.645Z,-4.76
2022-12-14T23:23:29.638Z,-4.77
2022-12-14T23:26:10.850Z,-4.78
2022-12-14T23:28:52.083Z,-4.77
2022-12-14T23:31:33.285Z,-4.75
2022-12-14T23:34:14.380Z,-4.74
2022-12-14T23:36:54.960Z,-4.74
2022-12-14T23:39:36.366Z,-4.74
2022-12-14T23:42:17.439Z,-4.75
2022-12-14T23:44:58.608Z,-4.74
2022-12-14T23:47:39.505Z,-4.72
2022-12-14T23:50:20.386Z,-4.71
2022-12-14T23:53:01.204Z,-4.72
2022-12-14T23:55:42.437Z,-4.71
2022-12-14T23:58:23.219Z,-4.69
